createdAt,value
2023-02-24T00:00:38.712Z,3.27
2023-02-24T00:03:11.572Z,2.60
2023-02-24T00:05:44.536Z,3.07
2023-02-24T00:08:11.187Z,3.60
2023-02-24T00:10:37.854Z,3.07
2023-02-24T00:13:04.586Z,3.43
2023-02-24T00:15:31.121Z,3.20
2023-02-24T00:17:58.517Z,3.30
2023-02-24T00:20:25.309Z,4.17
2023-02-24T00:22:51.955Z,3.80
2023-02-24T00:25:18.498Z,4.03
2023-02-24T00:27:45.005Z,3.70
2023-02-24T00:30:12.268Z,3.43
2023-02-24T00:32:39.109Z,3.83
2023-02-24T00:35:06.766Z,4.43
2023-02-24T00:37:33.354Z,3.47
2023-02-24T00:40:00.052Z,4.37
2023-02-24T00:42:27.162Z,3.93
2023-02-24T00:44:54.282Z,3.87
2023-02-24T00:47:22.536Z,4.13
2023-02-24T00:49:50.490Z,4.70
2023-02-24T00:52:20.220Z,4.47
2023-02-24T00:54:49.379Z,5.03
2023-02-24T00:57:18.663Z,4.63
2023-02-24T00:59:48.211Z,5.47
2023-02-24T01:02:15.393Z,4.33
2023-02-24T01:04:44.508Z,4.40
2023-02-24T01:07:11.747Z,4.53
2023-02-24T01:09:40.371Z,5.87
2023-02-24T01:12:38.480Z,5.13
2023-02-24T01:15:09.243Z,4.27
2023-02-24T01:17:37.524Z,4.87
2023-02-24T01:20:16.695Z,3.63
2023-02-24T01:22:45.093Z,5.43
2023-02-24T01:25:12.260Z,4.73
2023-02-24T01:27:40.407Z,5.57
2023-02-24T01:30:16.431Z,4.87
2023-02-24T01:32:44.186Z,4.63
2023-02-24T01:35:12.331Z,3.67
2023-02-24T01:37:39.803Z,4.17
2023-02-24T01:40:12.079Z,4.47
2023-02-24T01:42:41.771Z,4.60
2023-02-24T01:45:14.457Z,5.23
2023-02-24T01:47:42.208Z,4.50
2023-02-24T01:50:10.684Z,4.63
2023-02-24T01:52:38.219Z,3.93
2023-02-24T01:55:11.085Z,4.23
2023-02-24T01:57:39.253Z,4.93
2023-02-24T02:00:12.469Z,4.27
2023-02-24T02:02:42.623Z,4.73
2023-02-24T02:05:10.131Z,3.70
2023-02-24T02:07:40.099Z,4.47
2023-02-24T02:10:08.477Z,4.83
2023-02-24T02:12:37.831Z,3.70
2023-02-24T02:15:06.893Z,5.37
2023-02-24T02:18:10.970Z,4.53
2023-02-24T02:21:25.343Z,4.80
2023-02-24T02:24:14.882Z,4.87
2023-02-24T02:26:47.951Z,5.03
2023-02-24T02:29:56.406Z,4.87
2023-02-24T02:32:52.227Z,4.10
2023-02-24T02:35:26.230Z,3.53
2023-02-24T02:37:59.519Z,4.43
2023-02-24T02:40:48.772Z,4.87
2023-02-24T02:43:50.427Z,5.43
2023-02-24T02:46:35.105Z,5.50
2023-02-24T02:49:26.140Z,4.43
2023-02-24T02:51:57.492Z,4.03
2023-02-24T02:55:00.494Z,4.57
2023-02-24T02:57:30.896Z,5.57
2023-02-24T03:00:23.385Z,5.67
2023-02-24T03:02:55.508Z,5.33
2023-02-24T03:05:29.905Z,4.20
2023-02-24T03:07:59.211Z,5.73
2023-02-24T03:10:29.257Z,4.60
2023-02-24T03:13:01.942Z,5.40
2023-02-24T03:15:32.855Z,5.33
2023-02-24T03:18:10.719Z,5.17
2023-02-24T03:20:43.956Z,5.17
2023-02-24T03:23:22.030Z,4.67
2023-02-24T03:25:59.418Z,5.63
2023-02-24T03:28:35.861Z,4.30
2023-02-24T03:31:13.575Z,5.13
2023-02-24T03:33:48.977Z,4.53
2023-02-24T03:36:15.628Z,4.83
2023-02-24T03:38:43.499Z,4.50
2023-02-24T03:41:13.489Z,4.37
2023-02-24T03:43:45.124Z,5.07
2023-02-24T03:46:12.719Z,4.03
2023-02-24T03:48:46.988Z,5.07
2023-02-24T03:51:26.521Z,3.93
2023-02-24T03:54:16.286Z,4.80
2023-02-24T03:57:09.914Z,4.10
2023-02-24T03:59:56.186Z,4.60
2023-02-24T04:02:30.413Z,5.07
2023-02-24T04:05:03.446Z,4.00
2023-02-24T04:07:53.357Z,4.67
2023-02-24T04:10:28.094Z,4.93
2023-02-24T04:13:06.446Z,4.67
2023-02-24T04:15:44.107Z,5.00
2023-02-24T04:18:18.620Z,5.90
2023-02-24T04:20:51.289Z,5.03
2023-02-24T04:23:22.590Z,4.43
2023-02-24T04:25:53.460Z,4.33
2023-02-24T04:28:22.505Z,5.17
2023-02-24T04:30:53.243Z,4.83
2023-02-24T04:33:20.462Z,5.63
2023-02-24T04:35:50.681Z,5.50
2023-02-24T04:38:18.265Z,3.97
2023-02-24T04:40:45.320Z,5.60
2023-02-24T04:43:13.143Z,3.90
2023-02-24T04:45:40.423Z,4.53
2023-02-24T04:48:13.026Z,4.20
2023-02-24T04:50:42.328Z,5.43
2023-02-24T04:53:15.276Z,3.40
2023-02-24T04:55:49.085Z,4.43
2023-02-24T04:58:29.402Z,4.47
2023-02-24T05:00:56.626Z,5.30
2023-02-24T05:03:28.586Z,5.27
2023-02-24T05:06:02.598Z,4.37
2023-02-24T05:08:30.958Z,3.13
2023-02-24T05:10:58.883Z,4.00
2023-02-24T05:13:28.244Z,4.83
2023-02-24T05:15:56.866Z,3.20
2023-02-24T05:18:29.737Z,3.93
2023-02-24T05:21:15.681Z,3.87
2023-02-24T05:23:47.014Z,3.33
2023-02-24T05:26:18.663Z,3.77
2023-02-24T05:28:52.421Z,3.60
2023-02-24T05:31:26.499Z,3.27
2023-02-24T05:33:57.655Z,3.10
2023-02-24T05:36:26.060Z,3.50
2023-02-24T05:39:07.911Z,3.97
2023-02-24T05:41:36.551Z,3.23
2023-02-24T05:44:08.938Z,3.03
2023-02-24T05:46:41.706Z,3.63
2023-02-24T05:49:14.380Z,4.17
2023-02-24T05:51:43.672Z,3.07
2023-02-24T05:54:13.488Z,2.87
2023-02-24T05:56:43.878Z,3.37
2023-02-24T05:59:12.775Z,3.83
2023-02-24T06:01:47.528Z,4.33
2023-02-24T06:04:39.468Z,3.30
2023-02-24T06:07:21.049Z,3.00
2023-02-24T06:09:54.016Z,3.53
2023-02-24T06:12:26.231Z,3.37
2023-02-24T06:14:53.291Z,3.60
2023-02-24T06:17:21.909Z,3.13
2023-02-24T06:19:51.432Z,3.73
2023-02-24T06:22:21.453Z,3.73
2023-02-24T06:24:49.583Z,2.50
2023-02-24T06:27:21.786Z,2.73
2023-02-24T06:29:54.110Z,2.40
2023-02-24T06:32:26.942Z,5.37
2023-02-24T06:34:54.433Z,3.60
2023-02-24T06:37:23.140Z,4.20
2023-02-24T06:39:50.196Z,2.73
2023-02-24T06:42:17.207Z,3.90
2023-02-24T06:44:43.958Z,3.27
2023-02-24T06:47:14.811Z,3.03
2023-02-24T06:49:43.141Z,3.20
2023-02-24T06:52:11.978Z,2.53
2023-02-24T06:54:38.922Z,4.50
2023-02-24T06:57:05.702Z,2.93
2023-02-24T06:59:33.483Z,2.57
2023-02-24T07:02:03.615Z,3.73
2023-02-24T07:04:30.534Z,3.10
2023-02-24T07:07:03.409Z,2.60
2023-02-24T07:09:32.452Z,3.93
2023-02-24T07:12:02.753Z,4.87
2023-02-24T07:14:32.895Z,3.20
2023-02-24T07:17:00.672Z,3.80
2023-02-24T07:19:32.642Z,3.40
2023-02-24T07:22:02.331Z,3.93
2023-02-24T07:24:40.026Z,3.97
2023-02-24T07:27:09.574Z,3.03
2023-02-24T07:29:38.050Z,4.10
2023-02-24T07:32:09.081Z,4.20
2023-02-24T07:34:40.580Z,3.37
2023-02-24T07:37:08.750Z,3.27
2023-02-24T07:39:39.587Z,3.77
2023-02-24T07:42:08.969Z,4.07
2023-02-24T07:44:35.703Z,3.20
2023-02-24T07:47:08.065Z,3.97
2023-02-24T07:49:35.640Z,3.57
2023-02-24T07:52:02.369Z,4.17
2023-02-24T07:54:30.248Z,3.70
2023-02-24T07:56:59.352Z,4.50
2023-02-24T07:59:27.616Z,3.23
2023-02-24T08:01:56.135Z,4.23
2023-02-24T08:04:28.980Z,4.13
2023-02-24T08:06:56.625Z,3.87
2023-02-24T08:09:45.946Z,4.73
2023-02-24T08:12:18.360Z,2.93
2023-02-24T08:14:51.234Z,4.40
2023-02-24T08:17:20.989Z,3.43
2023-02-24T08:19:49.568Z,4.13
2023-02-24T08:22:19.798Z,3.10
2023-02-24T08:24:51.168Z,4.03
2023-02-24T08:27:21.942Z,3.60
2023-02-24T08:30:00.186Z,4.73
2023-02-24T08:32:43.764Z,4.07
2023-02-24T08:35:17.390Z,2.90
2023-02-24T08:37:47.283Z,3.07
2023-02-24T08:40:32.390Z,3.40
2023-02-24T08:43:01.243Z,3.30
2023-02-24T08:45:33.754Z,3.53
2023-02-24T08:48:18.399Z,3.03
2023-02-24T08:50:46.083Z,2.47
2023-02-24T08:53:19.335Z,3.73
2023-02-24T08:55:54.007Z,2.70
2023-02-24T08:58:27.174Z,2.57
2023-02-24T09:00:59.501Z,2.10
2023-02-24T09:03:28.498Z,2.60
2023-02-24T09:06:06.491Z,3.00
2023-02-24T09:08:35.350Z,2.70
2023-02-24T09:11:08.177Z,2.80
2023-02-24T09:13:43.231Z,2.33
2023-02-24T09:16:16.603Z,2.40
2023-02-24T09:18:43.273Z,2.70
2023-02-24T09:21:30.817Z,2.27
2023-02-24T09:23:57.329Z,1.90
2023-02-24T09:26:24.010Z,2.13
2023-02-24T09:28:55.117Z,2.33
2023-02-24T09:31:40.833Z,2.80
2023-02-24T09:34:10.554Z,2.90
2023-02-24T09:36:45.200Z,2.63
2023-02-24T09:39:14.881Z,1.57
2023-02-24T09:41:54.534Z,2.83
2023-02-24T09:44:34.528Z,1.93
2023-02-24T09:47:31.516Z,2.13
2023-02-24T09:50:04.607Z,2.00
2023-02-24T09:52:41.673Z,2.13
2023-02-24T09:55:36.003Z,2.13
2023-02-24T09:58:17.272Z,2.07
2023-02-24T10:00:58.269Z,1.40
2023-02-24T10:03:48.271Z,1.83
2023-02-24T10:06:21.113Z,1.43
2023-02-24T10:09:12.597Z,1.80
2023-02-24T10:11:55.732Z,1.50
2023-02-24T10:14:43.738Z,1.60
2023-02-24T10:17:25.372Z,1.50
2023-02-24T10:20:13.987Z,0.90
2023-02-24T10:22:52.923Z,1.33
2023-02-24T10:25:25.334Z,1.27
2023-02-24T10:28:06.031Z,1.40
2023-02-24T10:30:47.421Z,1.60
2023-02-24T10:33:18.272Z,1.63
2023-02-24T10:35:45.032Z,1.30
2023-02-24T10:38:12.090Z,1.50
2023-02-24T10:40:56.566Z,2.27
2023-02-24T10:43:31.955Z,1.87
2023-02-24T10:46:07.271Z,1.20
2023-02-24T10:48:42.574Z,1.57
2023-02-24T10:51:22.324Z,1.37
2023-02-24T10:54:10.318Z,1.83
2023-02-24T10:56:45.101Z,1.63
2023-02-24T10:59:25.352Z,1.67
2023-02-24T11:02:06.753Z,1.70
2023-02-24T11:04:55.893Z,2.07
2023-02-24T11:07:25.445Z,1.90
2023-02-24T11:10:12.272Z,1.70
2023-02-24T11:13:10.111Z,2.37
2023-02-24T11:16:08.292Z,1.63
2023-02-24T11:18:36.164Z,2.10
2023-02-24T11:21:06.269Z,2.00
2023-02-24T11:23:40.365Z,2.00
2023-02-24T11:26:27.567Z,1.90
2023-02-24T11:29:13.419Z,1.83
2023-02-24T11:31:45.840Z,2.13
2023-02-24T11:34:53.183Z,2.10
2023-02-24T11:37:43.415Z,1.87
2023-02-24T11:40:23.931Z,1.80
2023-02-24T11:43:13.958Z,2.53
2023-02-24T11:45:48.399Z,1.87
2023-02-24T11:48:27.458Z,2.27
2023-02-24T11:51:03.394Z,1.80
2023-02-24T11:53:32.938Z,2.23
2023-02-24T11:56:13.290Z,2.03
2023-02-24T11:58:51.382Z,2.27
2023-02-24T12:01:30.931Z,2.07
2023-02-24T12:04:10.785Z,1.80
2023-02-24T12:07:03.947Z,1.93
2023-02-24T12:09:50.401Z,2.23
2023-02-24T12:12:34.490Z,1.70
2023-02-24T12:15:10.639Z,2.50
2023-02-24T12:17:44.547Z,1.77
2023-02-24T12:20:29.200Z,1.90
2023-02-24T12:23:01.171Z,2.27
2023-02-24T12:25:47.365Z,2.03
2023-02-24T12:28:41.669Z,1.50
2023-02-24T12:31:38.000Z,2.70
2023-02-24T12:34:15.941Z,1.80
2023-02-24T12:36:51.940Z,1.83
2023-02-24T12:39:22.587Z,1.80
2023-02-24T12:42:25.029Z,1.97
2023-02-24T12:45:26.472Z,2.30
2023-02-24T12:47:53.039Z,1.70
2023-02-24T12:50:28.606Z,2.20
2023-02-24T12:53:09.472Z,1.70
2023-02-24T12:55:48.304Z,1.97
2023-02-24T12:58:25.222Z,1.43
2023-02-24T13:01:27.315Z,2.07
2023-02-24T13:04:12.967Z,2.30
2023-02-24T13:07:01.011Z,1.43
2023-02-24T13:09:55.853Z,1.30
2023-02-24T13:12:34.105Z,1.87
2023-02-24T13:15:01.199Z,1.50
2023-02-24T13:17:28.102Z,2.17
2023-02-24T13:19:55.945Z,1.63
2023-02-24T13:22:42.866Z,2.20
2023-02-24T13:25:09.449Z,1.83
2023-02-24T13:27:39.296Z,1.80
2023-02-24T13:30:12.221Z,1.60
2023-02-24T13:32:41.973Z,2.03
2023-02-24T13:35:18.069Z,1.53
2023-02-24T13:37:47.273Z,1.17
2023-02-24T13:40:24.061Z,1.50
2023-02-24T13:42:59.883Z,1.30
2023-02-24T13:45:39.899Z,1.60
2023-02-24T13:48:27.634Z,1.43
2023-02-24T13:51:19.807Z,1.13
2023-02-24T13:54:09.788Z,1.57
2023-02-24T13:57:24.739Z,1.03
2023-02-24T14:00:10.445Z,0.90
2023-02-24T14:02:44.405Z,1.63
2023-02-24T14:05:22.325Z,1.10
2023-02-24T14:07:50.376Z,1.40
2023-02-24T14:10:25.195Z,1.03
2023-02-24T14:13:08.389Z,0.90
2023-02-24T14:15:35.958Z,1.10
2023-02-24T14:18:05.304Z,1.10
2023-02-24T14:20:35.017Z,1.63
2023-02-24T14:23:02.525Z,1.40
2023-02-24T14:25:38.287Z,1.23
2023-02-24T14:28:05.016Z,1.93
2023-02-24T14:30:40.595Z,1.77
2023-02-24T14:33:08.617Z,1.47
2023-02-24T14:35:47.291Z,1.93
2023-02-24T14:38:30.979Z,2.20
2023-02-24T14:40:58.117Z,2.00
2023-02-24T14:43:25.170Z,2.10
2023-02-24T14:45:53.525Z,2.30
2023-02-24T14:48:24.495Z,1.87
2023-02-24T14:50:51.983Z,1.77
2023-02-24T14:53:22.306Z,1.63
2023-02-24T14:55:54.808Z,1.97
2023-02-24T14:58:37.079Z,2.00
2023-02-24T15:01:07.178Z,2.50
2023-02-24T15:03:37.950Z,1.90
2023-02-24T15:06:08.030Z,2.87
2023-02-24T15:08:48.780Z,2.30
2023-02-24T15:11:15.469Z,2.33
2023-02-24T15:13:45.941Z,1.83
2023-02-24T15:16:18.282Z,2.03
2023-02-24T15:18:51.378Z,2.33
2023-02-24T15:21:27.783Z,2.47
2023-02-24T15:24:02.186Z,2.10
2023-02-24T15:26:32.771Z,1.87
2023-02-24T15:29:03.452Z,2.03
2023-02-24T15:31:30.588Z,2.00
2023-02-24T15:34:00.516Z,3.23
2023-02-24T15:36:32.476Z,1.77
2023-02-24T15:39:17.456Z,2.50
2023-02-24T15:41:47.725Z,2.20
2023-02-24T15:44:32.720Z,2.20
2023-02-24T15:47:01.420Z,3.17
2023-02-24T15:49:28.165Z,1.80
2023-02-24T15:51:59.771Z,2.27
2023-02-24T15:54:34.553Z,1.80
2023-02-24T15:57:02.849Z,3.20
2023-02-24T15:59:29.896Z,3.20
2023-02-24T16:01:57.596Z,3.13
2023-02-24T16:04:24.597Z,2.07
2023-02-24T16:06:54.782Z,1.87
2023-02-24T16:09:37.005Z,2.10
2023-02-24T16:12:07.340Z,1.80
2023-02-24T16:14:34.356Z,1.67
2023-02-24T16:17:05.362Z,1.30
2023-02-24T16:19:32.180Z,1.10
2023-02-24T16:21:58.838Z,1.80
2023-02-24T16:24:25.448Z,1.40
2023-02-24T16:26:52.225Z,1.13
2023-02-24T16:29:18.896Z,0.93
2023-02-24T16:31:45.837Z,1.50
2023-02-24T16:34:15.375Z,1.43
2023-02-24T16:36:43.077Z,0.80
2023-02-24T16:39:12.647Z,1.17
2023-02-24T16:41:39.418Z,1.73
2023-02-24T16:44:06.001Z,0.87
2023-02-24T16:46:37.706Z,1.33
2023-02-24T16:49:08.306Z,1.53
2023-02-24T16:51:35.676Z,1.57
2023-02-24T16:54:02.437Z,0.93
2023-02-24T16:56:29.076Z,1.13
2023-02-24T16:58:55.693Z,1.23
2023-02-24T17:01:22.526Z,0.80
2023-02-24T17:03:51.401Z,1.80
2023-02-24T17:06:20.820Z,0.90
2023-02-24T17:08:49.394Z,1.57
2023-02-24T17:11:19.416Z,1.07
2023-02-24T17:13:46.324Z,1.00
2023-02-24T17:16:13.824Z,0.73
2023-02-24T17:18:40.606Z,1.60
2023-02-24T17:21:07.873Z,1.10
2023-02-24T17:23:34.493Z,0.80
2023-02-24T17:26:02.731Z,0.60
2023-02-24T17:28:29.718Z,1.00
2023-02-24T17:30:56.675Z,1.03
2023-02-24T17:33:23.349Z,0.57
2023-02-24T17:35:50.028Z,0.63
2023-02-24T17:38:19.834Z,0.70
2023-02-24T17:40:47.295Z,0.93
2023-02-24T17:43:14.300Z,1.10
2023-02-24T17:45:43.213Z,1.00
2023-02-24T17:48:10.796Z,0.70
2023-02-24T17:50:37.508Z,1.10
2023-02-24T17:53:04.109Z,1.10
2023-02-24T17:55:30.712Z,0.77
2023-02-24T17:58:00.110Z,1.00
2023-02-24T18:00:27.600Z,1.07
2023-02-24T18:02:54.309Z,0.90
2023-02-24T18:05:21.237Z,1.47
2023-02-24T18:07:48.575Z,1.33
2023-02-24T18:10:15.302Z,0.77
2023-02-24T18:12:41.920Z,1.17
2023-02-24T18:15:09.676Z,1.50
2023-02-24T18:17:37.531Z,0.80
2023-02-24T18:20:05.814Z,1.30
2023-02-24T18:22:32.508Z,1.07
2023-02-24T18:25:01.121Z,1.70
2023-02-24T18:27:27.918Z,1.37
2023-02-24T18:29:54.964Z,1.30
2023-02-24T18:32:22.070Z,1.70
2023-02-24T18:34:48.974Z,2.33
2023-02-24T18:37:15.781Z,2.00
2023-02-24T18:39:42.728Z,1.60
2023-02-24T18:42:09.894Z,2.00
2023-02-24T18:44:36.829Z,1.67
2023-02-24T18:47:09.540Z,2.20
2023-02-24T18:49:37.069Z,2.07
2023-02-24T18:52:05.531Z,1.87
2023-02-24T18:54:33.840Z,1.87
2023-02-24T18:57:00.605Z,2.20
2023-02-24T18:59:27.343Z,2.03
2023-02-24T19:01:56.923Z,1.93
2023-02-24T19:04:24.521Z,9.17
2023-02-24T19:06:51.247Z,6.90
2023-02-24T19:09:21.776Z,2.43
2023-02-24T19:11:49.651Z,2.30
2023-02-24T19:14:16.993Z,2.77
2023-02-24T19:16:43.906Z,2.33
2023-02-24T19:19:16.690Z,2.43
2023-02-24T19:21:48.558Z,2.00
2023-02-24T19:24:17.404Z,2.77
2023-02-24T19:26:46.028Z,1.93
2023-02-24T19:29:12.674Z,2.13
2023-02-24T19:31:39.811Z,2.43
2023-02-24T19:34:10.258Z,2.13
2023-02-24T19:36:37.650Z,3.10
2023-02-24T19:39:06.096Z,2.90
2023-02-24T19:41:32.955Z,2.40
2023-02-24T19:43:59.679Z,2.67
2023-02-24T19:46:26.975Z,2.47
2023-02-24T19:48:56.298Z,2.80
2023-02-24T19:51:24.298Z,2.07
2023-02-24T19:53:55.793Z,2.13
2023-02-24T19:56:28.829Z,2.90
2023-02-24T19:58:57.203Z,2.83
2023-02-24T20:01:25.077Z,3.07
2023-02-24T20:03:57.899Z,2.10
2023-02-24T20:06:31.766Z,2.43
2023-02-24T20:08:59.054Z,2.27
2023-02-24T20:11:26.189Z,1.97
2023-02-24T20:13:53.605Z,2.83
2023-02-24T20:16:23.823Z,2.27
2023-02-24T20:18:51.352Z,3.23
2023-02-24T20:21:17.964Z,2.87
2023-02-24T20:23:44.689Z,2.80
2023-02-24T20:26:16.643Z,2.67
2023-02-24T20:28:44.962Z,2.40
2023-02-24T20:31:16.123Z,2.13
2023-02-24T20:33:43.978Z,3.10
2023-02-24T20:36:13.833Z,2.43
2023-02-24T20:38:40.837Z,2.37
2023-02-24T20:41:07.640Z,3.30
2023-02-24T20:43:34.689Z,3.23
2023-02-24T20:46:15.077Z,3.00
2023-02-24T20:48:42.611Z,2.73
2023-02-24T20:51:15.513Z,2.30
2023-02-24T20:53:56.164Z,3.13
2023-02-24T20:56:24.729Z,3.50
2023-02-24T20:58:53.328Z,2.13
2023-02-24T21:01:21.226Z,2.50
2023-02-24T21:03:48.435Z,2.90
2023-02-24T21:06:16.417Z,2.77
2023-02-24T21:08:44.436Z,2.67
2023-02-24T21:11:13.070Z,3.03
2023-02-24T21:13:41.773Z,3.30
2023-02-24T21:16:09.665Z,2.87
2023-02-24T21:18:38.417Z,2.73
2023-02-24T21:21:06.276Z,2.07
2023-02-24T21:23:33.315Z,3.60
2023-02-24T21:26:00.184Z,3.50
2023-02-24T21:28:26.951Z,3.73
2023-02-24T21:30:53.781Z,2.80
2023-02-24T21:33:20.520Z,3.07
2023-02-24T21:36:03.362Z,3.67
2023-02-24T21:38:34.164Z,2.63
2023-02-24T21:41:07.469Z,2.40
2023-02-24T21:43:34.538Z,2.47
2023-02-24T21:46:02.802Z,2.80
2023-02-24T21:48:29.569Z,2.07
2023-02-24T21:51:05.141Z,2.77
2023-02-24T21:53:35.626Z,2.33
2023-02-24T21:56:27.055Z,2.57
2023-02-24T21:59:01.156Z,1.97
2023-02-24T22:01:30.423Z,2.43
2023-02-24T22:03:59.820Z,2.43
2023-02-24T22:06:30.269Z,2.60
2023-02-24T22:08:58.234Z,2.10
2023-02-24T22:11:24.955Z,2.33
2023-02-24T22:13:51.655Z,2.77
2023-02-24T22:16:21.968Z,2.50
2023-02-24T22:18:50.246Z,1.90
2023-02-24T22:21:19.532Z,2.33
2023-02-24T22:23:48.564Z,2.13
2023-02-24T22:26:16.899Z,2.40
2023-02-24T22:28:45.312Z,2.70
2023-02-24T22:31:14.310Z,2.30
2023-02-24T22:33:43.143Z,2.03
2023-02-24T22:36:21.733Z,2.63
2023-02-24T22:38:48.869Z,2.20
2023-02-24T22:41:21.826Z,2.10
2023-02-24T22:43:48.696Z,1.97
2023-02-24T22:46:18.105Z,2.27
2023-02-24T22:48:45.188Z,2.27
2023-02-24T22:51:13.021Z,2.17
2023-02-24T22:53:42.119Z,1.97
2023-02-24T22:56:11.519Z,1.90
2023-02-24T22:58:39.759Z,2.43
2023-02-24T23:01:22.337Z,1.93
2023-02-24T23:03:49.634Z,2.30
2023-02-24T23:06:22.611Z,1.60
2023-02-24T23:08:51.132Z,0.80
2023-02-24T23:11:32.001Z,1.73
2023-02-24T23:14:01.489Z,1.23
2023-02-24T23:16:31.965Z,0.93
2023-02-24T23:19:01.065Z,0.73
2023-02-24T23:21:38.061Z,1.63
2023-02-24T23:24:06.565Z,1.33
2023-02-24T23:26:38.507Z,1.73
2023-02-24T23:29:06.326Z,1.57
2023-02-24T23:31:33.576Z,1.40
2023-02-24T23:34:00.299Z,1.30
2023-02-24T23:36:26.849Z,1.43
2023-02-24T23:38:54.327Z,1.73
2023-02-24T23:41:21.076Z,1.17
2023-02-24T23:43:47.701Z,1.27
2023-02-24T23:46:14.508Z,1.60
2023-02-24T23:48:41.693Z,1.13
2023-02-24T23:51:13.159Z,1.20
2023-02-24T23:53:41.511Z,1.20
2023-02-24T23:56:10.178Z,1.53
2023-02-24T23:58:40.050Z,2.07
